Weather at Long Banga Airport

Public forecast

Using degrees Celsius for public forecast. Weather courtesy of forecast.io.

Closest aviation weather report (METAR) to Long Banga Airport

Closest report is Miri Airport, 108.2 nm (200.4 km) NW. Retrieved 2022/07/06 03:00 UTC (58 minutes ago):

WBGR 060300Z VRB05KT 9999 SCT016 29/25 Q1010

Closest aviation forecast (TAF) to Long Banga Airport

Closest forecast is Miri Airport, 108.2 nm (200.4 km) NW. Retrieved 2022-07-06 00:00 UTC (4 hours ago):

TAF WBGR 052300Z 0600/0700 33005KT 9999 SCT016 TEMPO 0607/0611 4000 TSRA FEW015CB